Time;durP1;ratioP1;P1;durP2;ratioP2;P2;SDS_P1;SDS_P2;PMS_P1;PMS_P2;Temp;Humidity;BMP_temperature;BMP_pressure;BME280_temperature;BME280_humidity;BME280_pressure;Samples;Min_cycle;Max_cycle;Signal;HPM_P1;HPM_P2
2023/08/03 00:00:06;;;;;;;0.47;0.30;;;20.70;99.90;;;20.72;63.30;98907.31;4926293;28;97814;-63
2023/08/03 00:02:34;;;;;;;0.40;0.20;;;20.60;99.90;;;20.62;62.22;98908.44;4932307;28;97274;-58
2023/08/03 00:05:02;;;;;;;0.30;0.30;;;20.50;99.90;;;20.68;63.27;98918.47;4927531;28;100443;-62
2023/08/03 00:07:27;;;;;;;0.97;0.30;;;20.50;99.90;;;20.67;62.49;98900.72;4944366;28;102498;-61
2023/08/03 00:09:53;;;;;;;0.77;0.40;;;20.50;99.90;;;20.70;63.41;98913.84;4927519;28;97640;-62
2023/08/03 00:12:19;;;;;;;0.87;0.20;;;20.60;99.90;;;20.65;63.53;98897.38;4927956;27;99272;-61
2023/08/03 00:14:45;;;;;;;1.10;0.30;;;20.50;99.90;;;20.65;63.45;98902.75;4939452;28;102776;-60
2023/08/03 00:17:10;;;;;;;1.97;0.40;;;20.50;99.90;;;20.55;64.50;98897.53;4922471;28;113446;-63
2023/08/03 00:19:36;;;;;;;1.77;0.20;;;20.50;99.90;;;20.61;63.17;98901.38;4940932;28;97014;-60
2023/08/03 00:22:02;;;;;;;0.47;0.13;;;20.50;99.90;;;20.65;62.95;98897.38;4930722;28;96897;-63
2023/08/03 00:24:28;;;;;;;1.57;0.20;;;20.50;99.90;;;20.67;63.69;98890.84;4921071;28;103117;-54
2023/08/03 00:26:54;;;;;;;0.37;0.10;;;20.60;99.90;;;20.67;62.44;98890.84;4924389;28;97638;-60
2023/08/03 00:29:19;;;;;;;0.00;0.00;;;20.60;99.90;;;20.69;63.95;98893.41;4926635;28;98121;-59
2023/08/03 00:31:45;;;;;;;0.43;0.30;;;20.60;99.90;;;20.72;62.96;98898.44;4932988;28;111783;-60
2023/08/03 00:34:11;;;;;;;0.30;0.20;;;20.60;99.90;;;20.67;62.16;98890.03;4933375;28;120928;-61
2023/08/03 00:36:36;;;;;;;1.53;0.40;;;20.60;99.90;;;20.66;62.91;98904.41;4940771;28;111028;-57
2023/08/03 00:39:02;;;;;;;0.20;0.20;;;20.50;99.90;;;20.70;63.93;98895.06;4938529;28;97319;-55
2023/08/03 00:41:28;;;;;;;0.37;0.20;;;20.50;99.90;;;20.59;63.64;98900.72;4935807;28;97003;-59
2023/08/03 00:43:54;;;;;;;1.70;0.37;;;20.50;99.90;;;20.62;62.84;98908.44;4937944;28;97861;-63
2023/08/03 00:46:19;;;;;;;0.40;0.10;;;20.50;99.90;;;20.52;62.69;98913.06;4935739;28;104697;-57
2023/08/03 00:48:45;;;;;;;0.00;0.00;;;20.50;99.90;;;20.46;62.66;98912.72;4941925;28;110376;-56
2023/08/03 00:51:12;;;;;;;0.30;0.10;;;20.40;99.90;;;20.45;63.71;98911.03;4937090;28;104952;-58
2023/08/03 00:53:37;;;;;;;0.20;0.10;;;20.40;99.90;;;20.45;63.17;98918.22;4940780;28;97544;-59
2023/08/03 00:56:03;;;;;;;0.33;0.20;;;20.40;99.90;;;20.46;64.13;98917.22;4939166;27;111500;-59
2023/08/03 00:58:29;;;;;;;0.00;0.00;;;20.50;99.90;;;20.48;62.88;98925.94;4939665;28;110948;-59
2023/08/03 01:00:55;;;;;;;1.53;0.30;;;20.50;99.90;;;20.50;63.30;98922.09;4943799;28;97943;-60
2023/08/03 01:03:21;;;;;;;1.27;0.50;;;20.50;99.90;;;20.54;63.43;98927.13;4945185;28;98794;-58
2023/08/03 01:05:47;;;;;;;0.30;0.10;;;20.50;99.90;;;20.45;63.75;98913.72;4937606;27;108557;-56
2023/08/03 01:08:12;;;;;;;0.20;0.10;;;20.50;99.90;;;20.50;63.82;98938.16;4938612;28;107943;-58
2023/08/03 01:10:38;;;;;;;0.30;0.30;;;20.50;99.90;;;20.45;62.23;98947.69;4956993;28;102738;-61
2023/08/03 01:13:04;;;;;;;0.80;0.30;;;20.50;99.90;;;20.42;62.70;98943.47;4944963;28;97860;-61
2023/08/03 01:15:30;;;;;;;0.70;0.30;;;20.40;99.90;;;20.51;63.27;98955.06;4940688;28;113285;-57
2023/08/03 01:17:55;;;;;;;0.20;0.10;;;20.40;99.90;;;20.48;62.58;98948.19;4944287;28;97373;-57
2023/08/03 01:20:23;;;;;;;0.27;0.10;;;20.50;99.90;;;20.53;62.39;98946.88;4946540;28;105285;-60
2023/08/03 01:22:48;;;;;;;0.93;0.10;;;20.50;99.90;;;20.62;63.57;98951.28;4943360;28;99224;-62
2023/08/03 01:25:14;;;;;;;0.77;0.30;;;20.60;99.90;;;20.63;62.85;98969.03;4933823;28;101898;-58
2023/08/03 01:27:44;;;;;;;0.50;0.20;;;20.60;99.90;;;20.59;63.19;98956.97;4961477;28;97092;-54
2023/08/03 01:30:11;;;;;;;0.40;0.20;;;20.60;99.90;;;20.57;63.27;98958.97;4938973;28;97076;-56
2023/08/03 01:32:37;;;;;;;0.50;0.20;;;20.60;99.90;;;20.56;62.34;98973.34;4933871;28;99413;-59
2023/08/03 01:35:03;;;;;;;0.20;0.20;;;20.50;99.90;;;20.64;63.28;98973.38;4938947;28;106469;-62
2023/08/03 01:37:29;;;;;;;1.40;0.20;;;20.60;99.90;;;20.61;62.34;98982.59;4938571;28;103738;-57
2023/08/03 01:39:55;;;;;;;0.73;0.20;;;20.60;99.90;;;20.58;63.41;98987.44;4942912;28;96955;-62
2023/08/03 01:42:20;;;;;;;1.53;0.37;;;20.50;99.90;;;20.57;63.32;98991.09;4934921;28;97836;-55
2023/08/03 01:44:47;;;;;;;1.30;0.30;;;20.50;99.90;;;20.54;63.58;98996.75;4935974;28;96955;-61
2023/08/03 01:47:13;;;;;;;0.87;0.30;;;20.50;99.90;;;20.53;62.66;99000.44;4947539;28;97627;-62
2023/08/03 01:49:38;;;;;;;2.67;0.33;;;20.50;99.90;;;20.57;62.95;98999.97;4944237;28;97433;-53
2023/08/03 01:52:04;;;;;;;1.90;0.43;;;20.60;99.90;;;20.59;62.96;98999.81;4944201;28;114068;-60
2023/08/03 01:54:30;;;;;;;1.23;0.10;;;20.60;99.90;;;20.52;63.48;99001.44;4942335;28;98690;-57
2023/08/03 01:56:56;;;;;;;0.80;0.20;;;20.50;99.90;;;20.58;63.28;99008.84;4940248;28;97574;-58
2023/08/03 01:59:22;;;;;;;0.20;0.20;;;20.50;99.90;;;20.60;63.44;99010.38;4944197;28;97071;-62
2023/08/03 02:01:47;;;;;;;0.87;0.10;;;20.60;99.90;;;20.60;62.62;99009.53;4937566;28;97267;-56
2023/08/03 02:04:14;;;;;;;0.47;0.10;;;20.60;99.90;;;20.62;62.81;99008.38;4937064;28;104170;-60
2023/08/03 02:06:40;;;;;;;0.10;0.10;;;20.60;99.90;;;20.59;62.91;99010.53;4950344;28;97094;-60
2023/08/03 02:09:06;;;;;;;0.40;0.27;;;20.60;99.90;;;20.63;62.21;99017.25;4940158;28;97342;-59
2023/08/03 02:11:34;;;;;;;0.10;0.10;;;20.60;99.90;;;20.63;62.04;99009.19;4937675;28;112500;-60
2023/08/03 02:14:00;;;;;;;0.20;0.10;;;20.60;99.90;;;20.67;61.71;99018.59;4965243;28;100494;-60
2023/08/03 02:16:26;;;;;;;0.30;0.20;;;20.60;99.90;;;20.72;62.65;99021.66;4942898;28;96982;-58
2023/08/03 02:18:52;;;;;;;0.80;0.10;;;20.70;99.90;;;20.65;62.64;99020.59;4946692;28;99700;-61
2023/08/03 02:21:18;;;;;;;0.20;0.10;;;20.60;99.90;;;20.62;62.12;99020.91;4941768;28;97654;-61
2023/08/03 02:23:43;;;;;;;0.10;0.10;;;20.60;99.90;;;20.60;62.77;99028.28;4941693;28;97129;-58
2023/08/03 02:26:09;;;;;;;0.30;0.10;;;20.60;99.90;;;20.67;62.03;99023.94;4943198;28;97050;-61
2023/08/03 02:28:35;;;;;;;0.97;0.10;;;20.60;99.90;;;20.68;62.39;99025.63;4940416;28;97440;-56
2023/08/03 02:31:01;;;;;;;2.17;0.30;;;20.60;99.90;;;20.72;62.80;99032.38;4940900;28;97428;-61
2023/08/03 02:33:27;;;;;;;0.17;0.17;;;20.70;99.90;;;20.70;61.97;99034.38;4945788;28;97495;-56
2023/08/03 02:35:52;;;;;;;1.40;0.20;;;20.70;99.90;;;20.70;62.86;99034.38;4938319;28;99379;-60
2023/08/03 02:38:18;;;;;;;0.50;0.17;;;20.60;99.90;;;20.70;62.48;99031.69;4951488;28;99332;-59
2023/08/03 02:40:44;;;;;;;0.47;0.20;;;20.60;99.90;;;20.70;63.05;99039.72;4944206;28;97307;-57
2023/08/03 02:43:10;;;;;;;0.73;0.20;;;20.60;99.90;;;20.64;62.09;99035.81;4933637;28;105193;-58
2023/08/03 02:45:35;;;;;;;0.43;0.40;;;20.60;99.90;;;20.59;62.64;99042.66;4938886;28;97235;-61
2023/08/03 02:48:01;;;;;;;1.03;0.20;;;20.50;99.90;;;20.64;63.66;99040.34;4947508;28;96843;-57
2023/08/03 02:50:27;;;;;;;0.20;0.13;;;20.50;99.90;;;20.67;63.23;99045.38;4940769;28;107067;-58
2023/08/03 02:52:53;;;;;;;0.60;0.10;;;20.60;99.90;;;20.64;62.25;99046.53;4941905;28;100277;-59
2023/08/03 02:55:18;;;;;;;0.40;0.40;;;20.60;99.90;;;20.67;62.78;99040.03;4937623;28;97226;-57
2023/08/03 02:57:44;;;;;;;1.40;0.40;;;20.60;99.90;;;20.63;61.72;99044.03;4939397;28;99028;-56
2023/08/03 03:00:10;;;;;;;0.10;0.10;;;20.60;99.90;;;20.65;62.70;99042.03;4946640;28;100240;-56
2023/08/03 03:02:36;;;;;;;1.37;0.20;;;20.50;99.90;;;20.59;62.19;99059.56;4934247;28;97238;-58
2023/08/03 03:05:03;;;;;;;0.73;0.23;;;20.50;99.90;;;20.52;63.01;99053.16;4946582;28;97506;-62
2023/08/03 03:07:32;;;;;;;0.20;0.10;;;20.40;99.90;;;20.44;62.22;99067.34;4944930;28;97157;-58
2023/08/03 03:09:58;;;;;;;0.37;0.37;;;20.40;99.90;;;20.40;62.52;99060.59;4940997;28;100850;-58
2023/08/03 03:12:24;;;;;;;1.20;0.20;;;20.30;99.90;;;20.38;63.40;99064.38;4939863;28;118752;-61
2023/08/03 03:14:49;;;;;;;0.10;0.10;;;20.20;99.90;;;20.44;63.66;99061.16;4962365;28;97437;-58
2023/08/03 03:17:15;;;;;;;0.23;0.10;;;20.30;99.90;;;20.45;62.77;99079.72;4945252;28;105008;-59
2023/08/03 03:19:41;;;;;;;0.20;0.20;;;20.40;99.90;;;20.51;62.87;99072.91;4939338;28;100170;-60
2023/08/03 03:22:07;;;;;;;0.73;0.20;;;20.40;99.90;;;20.58;63.51;99070.44;4931875;28;97170;-63
2023/08/03 03:24:33;;;;;;;0.60;0.20;;;20.50;99.90;;;20.58;62.14;99067.78;4937496;28;98836;-60
2023/08/03 03:26:59;;;;;;;0.93;0.10;;;20.50;99.90;;;20.61;62.84;99083.53;4942649;28;97318;-60
2023/08/03 03:29:25;;;;;;;1.30;0.40;;;20.50;99.90;;;20.59;62.93;99070.28;4946896;28;97198;-58
2023/08/03 03:31:51;;;;;;;0.20;0.10;;;20.60;99.90;;;20.64;63.42;99072.50;4932874;28;112284;-62
2023/08/03 03:34:17;;;;;;;0.10;0.10;;;20.60;99.90;;;20.65;63.29;99071.50;4942658;28;98805;-60
2023/08/03 03:36:42;;;;;;;0.37;0.23;;;20.60;99.90;;;20.63;61.57;99076.16;4940416;28;96905;-57
2023/08/03 03:39:08;;;;;;;0.60;0.20;;;20.60;99.90;;;20.62;62.33;99072.66;4943307;28;98489;-56
2023/08/03 03:41:34;;;;;;;0.87;0.27;;;20.50;99.90;;;20.59;62.68;99080.16;4947766;28;97407;-58
2023/08/03 03:44:00;;;;;;;0.10;0.10;;;20.50;99.90;;;20.52;63.51;99073.72;4938670;28;97148;-62
2023/08/03 03:46:25;;;;;;;0.63;0.20;;;20.40;99.90;;;20.48;62.44;99074.06;4945035;28;98237;-58
2023/08/03 03:48:51;;;;;;;0.10;0.10;;;20.40;99.90;;;20.48;62.47;99079.41;4937266;28;109832;-58
2023/08/03 03:51:20;;;;;;;0.50;0.10;;;20.40;99.90;;;20.56;62.40;99085.84;4936185;28;117314;-60
2023/08/03 03:53:45;;;;;;;0.43;0.30;;;20.50;99.90;;;20.46;62.80;99097.47;4939871;28;96914;-59
2023/08/03 03:56:11;;;;;;;0.10;0.10;;;20.40;99.90;;;20.45;63.81;99101.16;4937918;28;109288;-59
2023/08/03 03:58:37;;;;;;;0.00;0.00;;;20.40;99.90;;;20.49;63.81;99091.81;4938373;28;119806;-57
2023/08/03 04:01:02;;;;;;;0.50;0.20;;;20.40;99.90;;;20.56;63.43;99096.56;4946118;28;103549;-59
2023/08/03 04:03:28;;;;;;;0.33;0.10;;;20.50;99.90;;;20.53;63.57;99105.72;4938164;28;100179;-58
2023/08/03 04:05:54;;;;;;;0.10;0.10;;;20.50;99.90;;;20.49;63.34;99113.22;4943883;28;96841;-56
2023/08/03 04:08:20;;;;;;;0.20;0.20;;;20.50;99.90;;;20.57;63.37;99114.31;4957589;28;107370;-59
2023/08/03 04:10:45;;;;;;;0.10;0.10;;;20.50;99.90;;;20.60;63.08;99113.97;4933667;28;123075;-60
2023/08/03 04:13:11;;;;;;;0.53;0.10;;;20.50;99.90;;;20.58;63.65;99110.63;4931705;28;97091;-63
2023/08/03 04:15:37;;;;;;;0.20;0.10;;;20.50;99.90;;;20.62;63.31;99117.34;4936477;28;102447;-58
2023/08/03 04:18:03;;;;;;;0.17;0.10;;;20.50;99.90;;;20.62;63.27;99118.19;4940867;28;110261;-58
2023/08/03 04:20:28;;;;;;;0.20;0.10;;;20.50;99.90;;;20.56;63.66;99128.69;4935117;28;105205;-61
2023/08/03 04:22:54;;;;;;;0.00;0.00;;;20.40;99.90;;;20.54;63.85;99131.50;4942311;28;97446;-57
2023/08/03 04:25:20;;;;;;;0.50;0.20;;;20.40;99.90;;;20.58;63.21;99129.38;4933264;28;102095;-59
2023/08/03 04:27:46;;;;;;;0.10;0.07;;;20.50;99.90;;;20.55;63.71;99127.00;4939492;28;97528;-58
2023/08/03 04:30:13;;;;;;;0.20;0.10;;;20.40;99.90;;;20.58;63.63;99132.06;4939409;28;105018;-60
2023/08/03 04:32:40;;;;;;;0.03;0.03;;;20.40;99.90;;;20.64;62.48;99131.41;4941875;28;97013;-61
2023/08/03 04:35:07;;;;;;;0.17;0.10;;;20.50;99.90;;;20.61;63.52;99139.78;4937329;28;97101;-57
2023/08/03 04:37:32;;;;;;;0.00;0.00;;;20.50;99.90;;;20.52;62.68;99148.72;4939053;28;101516;-61
2023/08/03 04:39:58;;;;;;;0.23;0.10;;;20.40;99.90;;;20.57;62.71;99135.72;4929920;28;97533;-59
2023/08/03 04:42:24;;;;;;;0.20;0.20;;;20.40;99.90;;;20.57;63.21;99141.94;4940530;28;97552;-56
2023/08/03 04:44:50;;;;;;;2.77;0.10;;;20.50;99.90;;;20.60;63.43;99155.00;4936140;28;98090;-61
2023/08/03 04:47:16;;;;;;;0.10;0.10;;;20.50;99.90;;;20.54;62.19;99152.09;4941037;28;109316;-60
2023/08/03 04:49:42;;;;;;;0.70;0.13;;;20.50;99.90;;;20.54;63.11;99152.09;4927798;28;97594;-61
2023/08/03 04:52:08;;;;;;;0.20;0.10;;;20.40;99.90;;;20.57;62.96;99160.69;4939938;28;97281;-60
2023/08/03 04:54:33;;;;;;;0.00;0.00;;;20.50;99.90;;;20.50;63.11;99152.41;4959651;28;107614;-59
2023/08/03 04:56:59;;;;;;;0.30;0.10;;;20.40;99.90;;;20.53;63.16;99156.59;4939782;28;114475;-62
2023/08/03 04:59:25;;;;;;;0.03;0.00;;;20.40;99.90;;;20.56;62.49;99160.84;4934644;28;105857;-56
2023/08/03 05:01:51;;;;;;;0.20;0.10;;;20.50;99.90;;;20.61;63.58;99163.88;4933434;28;97203;-58
2023/08/03 05:04:16;;;;;;;0.30;0.00;;;20.50;99.90;;;20.60;62.58;99173.75;4935448;28;98576;-59
2023/08/03 05:06:42;;;;;;;0.10;0.10;;;20.50;99.90;;;20.57;62.91;99162.50;4934258;28;97078;-61
2023/08/03 05:09:08;;;;;;;0.10;0.10;;;20.50;99.90;;;20.58;62.66;99174.91;4933193;28;96772;-61
2023/08/03 05:11:34;;;;;;;0.40;0.20;;;20.50;99.90;;;20.53;62.60;99171.81;4960732;27;96995;-58
2023/08/03 05:13:59;;;;;;;0.20;0.10;;;20.50;99.90;;;20.54;62.40;99168.16;4934606;28;96944;-59
2023/08/03 05:16:26;;;;;;;0.87;0.20;;;20.50;99.90;;;20.46;62.22;99159.06;4942173;28;123624;-60
2023/08/03 05:18:52;;;;;;;0.10;0.10;;;20.40;99.90;;;20.48;63.71;99169.63;4958145;28;97558;-61
2023/08/03 05:21:19;;;;;;;0.50;0.33;;;20.30;99.90;;;20.50;63.38;99171.16;4934836;28;97455;-59
2023/08/03 05:23:48;;;;;;;1.17;0.13;;;20.30;99.90;;;20.49;63.15;99169.47;4932553;28;97285;-59
2023/08/03 05:26:14;;;;;;;0.20;0.10;;;20.40;99.90;;;20.53;62.33;99167.31;4937928;27;98937;-57
2023/08/03 05:28:40;;;;;;;0.00;0.00;;;20.40;99.90;;;20.55;62.40;99180.59;4958178;28;98254;-56
2023/08/03 05:31:06;;;;;;;0.10;0.10;;;20.50;99.90;;;20.60;62.98;99179.09;4940791;28;97502;-59
2023/08/03 05:33:35;;;;;;;1.10;0.30;;;20.50;99.90;;;20.57;62.41;99176.75;4944907;27;97463;-55
2023/08/03 05:36:02;;;;;;;0.10;0.10;;;20.50;99.90;;;20.55;61.58;99178.75;4935317;28;99125;-62
2023/08/03 05:38:28;;;;;;;0.67;0.10;;;20.50;99.90;;;20.46;61.95;99183.16;4938996;28;98435;-59
2023/08/03 05:40:54;;;;;;;0.03;0.00;;;20.40;99.90;;;20.58;62.44;99177.59;4940580;28;98342;-59
2023/08/03 05:43:27;;;;;;;0.20;0.20;;;20.50;99.90;;;20.52;61.64;99184.38;4938773;28;97439;-56
2023/08/03 05:46:00;;;;;;;0.20;0.00;;;20.50;99.90;;;20.47;63.29;99184.00;4942654;28;96907;-58
2023/08/03 05:48:30;;;;;;;0.10;0.10;;;20.40;99.90;;;20.48;62.02;99197.25;4937272;28;105434;-54
2023/08/03 05:50:57;;;;;;;0.00;0.00;;;20.40;99.90;;;20.50;61.81;99195.25;4931714;28;97657;-58
2023/08/03 05:53:23;;;;;;;0.10;0.10;;;20.40;99.90;;;20.52;61.92;99191.56;4960620;28;97098;-56
2023/08/03 05:55:49;;;;;;;0.60;0.10;;;20.50;99.90;;;20.61;62.64;99198.69;4939676;28;97261;-58
2023/08/03 05:58:17;;;;;;;0.10;0.10;;;20.50;99.90;;;20.64;61.94;99195.72;4946765;28;97092;-58
2023/08/03 06:00:49;;;;;;;0.30;0.10;;;20.60;99.90;;;20.58;62.05;99209.72;4954773;28;97199;-58
2023/08/03 06:03:17;;;;;;;0.50;0.00;;;20.50;99.90;;;20.52;63.21;99204.97;4937940;27;97255;-57
2023/08/03 06:05:47;;;;;;;0.10;0.10;;;20.50;99.90;;;20.52;63.92;99213.00;4939732;28;97349;-57
2023/08/03 06:08:19;;;;;;;0.10;0.00;;;20.40;99.90;;;20.48;63.50;99218.66;4933389;28;97795;-57
2023/08/03 06:10:56;;;;;;;0.17;0.17;;;20.40;99.90;;;20.52;63.37;99210.31;4938595;27;97472;-59
2023/08/03 06:13:33;;;;;;;0.10;0.10;;;20.40;99.90;;;20.54;63.32;99211.00;4947878;28;97308;-58
2023/08/03 06:16:06;;;;;;;0.00;0.00;;;20.50;99.90;;;20.49;64.03;99206.97;4946586;28;101125;-57
2023/08/03 06:18:32;;;;;;;1.20;0.17;;;20.40;99.90;;;20.45;63.89;99216.31;4936374;28;101647;-58
2023/08/03 06:20:58;;;;;;;0.13;0.13;;;20.40;99.90;;;20.48;63.78;99218.66;4940213;28;97061;-58
2023/08/03 06:23:27;;;;;;;0.10;0.10;;;20.40;99.90;;;20.55;63.48;99223.44;4931903;28;106179;-59
2023/08/03 06:25:55;;;;;;;0.10;0.10;;;20.50;99.90;;;20.54;63.05;99229.75;4940194;28;98728;-58
2023/08/03 06:28:23;;;;;;;0.10;0.10;;;20.50;99.90;;;20.56;63.31;99234.00;4942075;28;97481;-59
2023/08/03 06:30:51;;;;;;;1.57;0.20;;;20.50;99.90;;;20.54;63.54;99252.03;4961504;28;106660;-58
2023/08/03 06:33:21;;;;;;;2.23;0.20;;;20.50;99.90;;;20.52;64.15;99253.16;4944738;28;103492;-60
2023/08/03 06:35:50;;;;;;;0.20;0.20;;;20.40;99.90;;;20.49;64.24;99252.50;4944269;28;98743;-61
2023/08/03 06:38:22;;;;;;;0.17;0.10;;;20.40;99.90;;;20.45;64.25;99261.81;4935612;28;97326;-61
2023/08/03 06:40:48;;;;;;;0.13;0.13;;;20.40;99.90;;;20.39;64.55;99257.03;4959316;28;97269;-60
2023/08/03 06:43:14;;;;;;;1.13;0.17;;;20.30;99.90;;;20.45;64.39;99256.47;4963568;28;101398;-62
2023/08/03 06:45:44;;;;;;;0.10;0.10;;;20.30;99.90;;;20.39;65.17;99262.38;4943585;28;100287;-61
2023/08/03 06:48:10;;;;;;;0.03;0.03;;;20.30;99.90;;;20.34;64.96;99264.69;4946446;28;98528;-59
2023/08/03 06:50:36;;;;;;;1.63;0.40;;;20.30;99.90;;;20.33;66.04;99268.34;4955116;28;99214;-60
2023/08/03 06:53:03;;;;;;;0.30;0.30;;;20.20;99.90;;;20.38;65.96;99276.75;4962952;27;107326;-58
2023/08/03 06:55:30;;;;;;;0.10;0.10;;;20.20;99.90;;;20.37;65.23;99282.28;4961354;27;98659;-57
2023/08/03 06:57:56;;;;;;;0.30;0.30;;;20.20;99.90;;;20.30;66.91;99281.19;4949652;28;97074;-61
2023/08/03 07:00:23;;;;;;;0.30;0.20;;;20.20;99.90;;;20.29;65.77;99283.03;4944222;27;97181;-58
2023/08/03 07:02:49;;;;;;;1.03;0.20;;;20.10;99.90;;;20.23;66.31;99288.13;4939109;28;97256;-60
2023/08/03 07:05:15;;;;;;;0.10;0.10;;;20.10;99.90;;;20.26;65.77;99288.69;4941472;28;97485;-57
2023/08/03 07:07:41;;;;;;;1.50;0.20;;;20.10;99.90;;;20.25;65.63;99286.97;4935466;28;107472;-60
2023/08/03 07:10:07;;;;;;;0.27;0.10;;;20.10;99.90;;;20.25;65.77;99297.69;4940348;28;97014;-59
2023/08/03 07:12:36;;;;;;;0.30;0.20;;;20.10;99.90;;;20.23;66.10;99306.88;4938949;28;97484;-59
2023/08/03 07:15:06;;;;;;;1.17;0.10;;;20.10;99.90;;;20.27;65.47;99301.09;4947788;28;98725;-59
2023/08/03 07:17:32;;;;;;;0.30;0.20;;;20.10;99.90;;;20.25;65.64;99308.41;4944359;28;97704;-62
2023/08/03 07:19:58;;;;;;;0.13;0.13;;;20.10;99.90;;;20.21;66.49;99317.72;4939947;28;100852;-56
2023/08/03 07:22:24;;;;;;;0.30;0.20;;;20.10;99.90;;;20.17;66.80;99317.19;4935609;28;97500;-59
2023/08/03 07:24:51;;;;;;;0.30;0.20;;;20.00;99.90;;;20.17;67.02;99327.06;4938715;28;97163;-58
2023/08/03 07:27:17;;;;;;;1.73;0.23;;;20.00;99.90;;;20.19;66.22;99319.72;4946333;28;97269;-61
2023/08/03 07:29:43;;;;;;;0.93;0.30;;;20.00;99.90;;;20.21;66.99;99336.47;4932799;27;103828;-58
2023/08/03 07:32:11;;;;;;;2.27;0.20;;;20.10;99.90;;;20.26;65.89;99336.88;4956935;28;97272;-60
2023/08/03 07:34:37;;;;;;;0.10;0.10;;;20.10;99.90;;;20.30;65.53;99332.91;4930786;28;97678;-58
2023/08/03 07:37:04;;;;;;;0.53;0.20;;;20.20;99.90;;;20.28;66.07;99350.97;4932760;28;101555;-61
2023/08/03 07:39:29;;;;;;;0.60;0.20;;;20.20;99.90;;;20.27;66.65;99333.22;4934392;28;97194;-63
2023/08/03 07:41:55;;;;;;;2.30;0.37;;;20.20;99.90;;;20.27;66.07;99349.28;4941742;28;97136;-58
2023/08/03 07:44:21;;;;;;;0.10;0.10;;;20.10;99.90;;;20.37;65.44;99350.06;4952994;27;97467;-58
2023/08/03 07:46:47;;;;;;;0.60;0.20;;;20.30;99.90;;;20.35;66.78;99357.41;4935300;28;116574;-60
2023/08/03 07:49:13;;;;;;;1.50;0.23;;;20.20;99.90;;;20.36;66.17;99369.78;4938286;27;103358;-58
2023/08/03 07:51:39;;;;;;;0.63;0.20;;;20.30;99.90;;;20.45;65.18;99363.59;4939274;28;97568;-58
2023/08/03 07:54:06;;;;;;;0.20;0.17;;;20.40;99.90;;;20.45;65.10;99374.31;4935047;28;115011;-56
2023/08/03 07:56:32;;;;;;;0.30;0.23;;;20.40;99.90;;;20.50;65.27;99376.53;4941867;28;97467;-58
2023/08/03 07:58:59;;;;;;;0.20;0.20;;;20.40;99.90;;;20.48;65.49;99368.66;4965244;28;99291;-58
2023/08/03 08:01:25;;;;;;;0.20;0.20;;;20.40;99.90;;;20.54;65.73;99377.06;4941603;27;97187;-57
2023/08/03 08:03:51;;;;;;;0.20;0.10;;;20.50;99.90;;;20.49;65.69;99381.03;4943327;28;97219;-55
2023/08/03 08:06:20;;;;;;;0.70;0.27;;;20.40;99.90;;;20.46;66.10;99386.69;4940450;28;113762;-55
2023/08/03 08:08:47;;;;;;;0.17;0.17;;;20.40;99.90;;;20.44;65.63;99386.00;4932033;28;97565;-58
2023/08/03 08:11:16;;;;;;;0.30;0.20;;;20.30;99.90;;;20.47;64.96;99399.09;4936995;28;97310;-57
2023/08/03 08:13:43;;;;;;;1.70;0.20;;;20.40;99.90;;;20.42;65.30;99401.38;4939458;28;97782;-56
2023/08/03 08:16:12;;;;;;;0.30;0.10;;;20.30;99.90;;;20.49;65.54;99406.97;4951146;28;103964;-58
2023/08/03 08:18:38;;;;;;;0.37;0.30;;;20.40;99.90;;;20.39;66.20;99396.28;4943033;28;96962;-57
2023/08/03 08:21:12;;;;;;;0.10;0.10;;;20.30;99.90;;;20.41;66.30;99415.78;4944216;28;97324;-57
2023/08/03 08:23:39;;;;;;;0.83;0.20;;;20.40;99.90;;;20.36;65.43;99401.94;4935791;28;102123;-55
2023/08/03 08:26:18;;;;;;;0.40;0.20;;;20.30;99.90;;;20.47;65.62;99417.84;4927119;28;101167;-58
2023/08/03 08:28:46;;;;;;;0.33;0.10;;;20.40;99.90;;;20.50;65.41;99414.88;4945340;28;100658;-58
2023/08/03 08:31:12;;;;;;;0.10;0.10;;;20.50;99.90;;;20.54;65.34;99425.28;4932968;28;97395;-58
2023/08/03 08:33:39;;;;;;;0.43;0.30;;;20.50;99.90;;;20.58;65.17;99424.00;4938567;28;98062;-62
2023/08/03 08:36:05;;;;;;;0.40;0.20;;;20.50;99.90;;;20.48;66.20;99419.53;4961514;28;99356;-55
2023/08/03 08:38:32;;;;;;;0.93;0.20;;;20.50;99.90;;;20.48;66.62;99427.56;4961831;28;96951;-58
2023/08/03 08:41:03;;;;;;;1.63;0.30;;;20.40;99.90;;;20.54;65.58;99430.63;4936100;28;97638;-58
2023/08/03 08:43:29;;;;;;;0.20;0.20;;;20.50;99.90;;;20.43;65.68;99424.50;4935619;28;101264;-58
2023/08/03 08:45:54;;;;;;;3.00;0.57;;;20.40;99.90;;;20.38;66.03;99437.44;4938008;28;101552;-57
2023/08/03 08:48:20;;;;;;;0.10;0.10;;;20.30;99.90;;;20.38;66.11;99441.94;4942324;28;97075;-59
2023/08/03 08:50:49;;;;;;;0.73;0.20;;;20.30;99.90;;;20.38;66.31;99458.00;4932893;28;97238;-56
2023/08/03 08:53:15;;;;;;;0.27;0.20;;;20.30;99.90;;;20.40;66.19;99456.06;4961940;28;97544;-57
2023/08/03 08:55:41;;;;;;;0.50;0.20;;;20.40;99.90;;;20.38;66.29;99458.84;4942369;28;98795;-59
2023/08/03 08:58:07;;;;;;;0.20;0.07;;;20.40;99.90;;;20.39;66.70;99470.41;4963137;28;97655;-58
2023/08/03 09:00:45;;;;;;;0.40;0.10;;;20.40;99.90;;;20.44;66.43;99469.03;4934232;28;97762;-57
2023/08/03 09:03:12;;;;;;;0.20;0.20;;;20.40;99.90;;;20.37;67.14;99478.59;4954709;28;102226;-57
2023/08/03 09:05:39;;;;;;;1.10;0.30;;;20.40;99.90;;;20.39;66.90;99475.75;4933298;28;97186;-55
2023/08/03 09:08:14;;;;;;;0.20;0.10;;;20.40;99.90;;;20.45;67.15;99483.25;4936469;28;96912;-58
2023/08/03 09:10:55;;;;;;;0.50;0.30;;;20.40;99.90;;;20.38;67.74;99488.31;4933075;28;97638;-57
2023/08/03 09:13:36;;;;;;;0.67;0.20;;;20.30;99.90;;;20.44;67.30;99490.47;4937362;27;97332;-58
2023/08/03 09:16:03;;;;;;;0.10;0.10;;;20.40;99.90;;;20.44;66.91;99492.28;4944804;28;103953;-57
2023/08/03 09:18:31;;;;;;;1.70;0.30;;;20.40;99.90;;;20.33;69.78;99495.94;4955557;28;99001;-58
2023/08/03 09:21:15;;;;;;;0.10;0.10;;;20.20;99.90;;;20.34;68.08;99494.94;4938504;28;98848;-58
2023/08/03 09:23:42;;;;;;;3.13;0.30;;;20.30;99.90;;;20.31;68.72;99508.63;4930390;28;101075;-56
2023/08/03 09:26:08;;;;;;;0.10;0.10;;;20.30;99.90;;;20.32;68.38;99513.00;4939062;28;97801;-57
2023/08/03 09:28:39;;;;;;;0.20;0.20;;;20.30;99.90;;;20.30;68.20;99503.44;4942031;28;97606;-59
2023/08/03 09:31:06;;;;;;;0.23;0.10;;;20.30;99.90;;;20.34;68.91;99512.84;4939189;28;97519;-56
2023/08/03 09:33:33;;;;;;;0.50;0.30;;;20.30;99.90;;;20.37;70.38;99513.41;4937132;28;97481;-58
2023/08/03 09:36:13;;;;;;;0.10;0.10;;;20.40;99.90;;;20.36;67.83;99514.38;4947346;28;107075;-61
2023/08/03 09:38:41;;;;;;;0.57;0.30;;;20.40;99.90;;;20.37;68.10;99520.59;4940758;28;100734;-59
2023/08/03 09:41:08;;;;;;;0.17;0.13;;;20.40;99.90;;;20.31;67.69;99511.31;4938517;28;98281;-56
2023/08/03 09:43:34;;;;;;;0.40;0.20;;;20.30;99.90;;;20.37;67.78;99529.47;4940217;28;101534;-58
2023/08/03 09:46:01;;;;;;;0.27;0.27;;;20.40;99.90;;;20.44;67.44;99525.28;4937212;28;109286;-56
2023/08/03 09:48:27;;;;;;;1.47;0.40;;;20.40;99.90;;;20.50;67.04;99532.72;4945203;28;97082;-58
2023/08/03 09:50:56;;;;;;;1.13;0.30;;;20.50;99.90;;;20.52;66.69;99540.59;4942181;28;97421;-58
2023/08/03 09:53:36;;;;;;;0.30;0.17;;;20.50;99.90;;;20.53;66.85;99530.72;4942491;28;97371;-57
2023/08/03 09:56:03;;;;;;;0.50;0.20;;;20.50;99.90;;;20.55;67.22;99531.47;4941640;28;99933;-58
2023/08/03 09:58:59;;;;;;;0.20;0.20;;;20.60;99.90;;;20.53;66.67;99541.44;4965815;28;97139;-58
2023/08/03 10:01:26;;;;;;;0.93;0.40;;;20.50;99.90;;;20.57;66.85;99537.50;4939536;28;97617;-56
2023/08/03 10:03:59;;;;;;;0.30;0.30;;;20.60;99.90;;;20.60;68.08;99542.56;4962817;28;98814;-59
2023/08/03 10:06:34;;;;;;;0.30;0.30;;;20.60;99.90;;;20.60;68.25;99543.41;4941220;28;99619;-57
2023/08/03 10:09:09;;;;;;;1.60;0.70;;;20.60;99.90;;;20.62;68.62;99543.25;4940929;28;97060;-56
2023/08/03 10:11:46;;;;;;;1.43;0.20;;;20.60;99.90;;;20.68;67.66;99534.63;4943549;28;100475;-59
2023/08/03 10:14:16;;;;;;;0.73;0.23;;;20.70;99.90;;;20.70;65.85;99544.25;4932119;28;101484;-60
2023/08/03 10:16:43;;;;;;;1.33;0.50;;;20.70;99.90;;;20.74;67.36;99547.47;4943490;28;97259;-56